Time;durP1;ratioP1;P1;durP2;ratioP2;P2;SDS_P1;SDS_P2;PMS_P1;PMS_P2;Temp;Humidity;BMP_temperature;BMP_pressure;BME280_temperature;BME280_humidity;BME280_pressure;Samples;Min_cycle;Max_cycle;Signal;HPM_P1;HPM_P2
2021/10/20 00:01:55;;;;;;;12.05;7.28;;;;;;;16.47;87.16;100993.38;5016017;28;20215;-73
2021/10/20 00:04:20;;;;;;;9.13;6.45;;;;;;;16.44;86.85;100987.19;5015728;28;20406;-73
2021/10/20 00:06:45;;;;;;;9.75;6.53;;;;;;;16.43;86.69;100981.00;5015128;28;20501;-71
2021/10/20 00:09:11;;;;;;;10.93;6.57;;;;;;;16.47;86.32;100988.06;5015106;28;20117;-73
2021/10/20 00:11:36;;;;;;;9.98;6.60;;;;;;;16.46;86.26;100986.28;5013728;28;20026;-72
2021/10/20 00:14:02;;;;;;;13.98;6.80;;;;;;;16.41;86.51;100980.13;5014981;28;20030;-73
2021/10/20 00:16:28;;;;;;;12.40;7.43;;;;;;;16.39;86.72;100971.28;5014999;28;20513;-73
2021/10/20 00:18:55;;;;;;;10.07;6.68;;;;;;;16.40;86.32;100962.44;5014685;28;20022;-72
2021/10/20 00:21:25;;;;;;;10.95;7.60;;;;;;;16.41;86.07;100961.53;5013549;28;20064;-72
2021/10/20 00:23:51;;;;;;;10.57;6.53;;;;;;;16.43;85.69;100962.41;5013652;28;20034;-73
2021/10/20 00:26:17;;;;;;;13.07;7.97;;;;;;;16.43;85.15;100954.44;5014676;28;20049;-72
2021/10/20 00:28:42;;;;;;;8.98;7.00;;;;;;;16.46;85.14;100951.75;5014741;28;20037;-73
2021/10/20 00:31:08;;;;;;;8.05;6.55;;;;;;;16.43;85.35;100958.88;5014647;28;20041;-73
2021/10/20 00:33:33;;;;;;;7.97;6.53;;;;;;;16.44;85.12;100948.25;5014729;28;20026;-71
2021/10/20 00:35:59;;;;;;;12.60;7.15;;;;;;;16.44;85.17;100940.28;5014940;28;20026;-73
2021/10/20 00:38:24;;;;;;;19.15;7.28;;;;;;;16.42;84.93;100942.06;5014923;28;20026;-73
2021/10/20 00:40:51;;;;;;;9.90;7.22;;;;;;;16.45;84.59;100931.41;5014457;28;20117;-72
2021/10/20 00:43:21;;;;;;;14.18;7.15;;;;;;;16.45;84.22;100934.06;5014653;28;20041;-72
2021/10/20 00:45:46;;;;;;;11.63;7.18;;;;;;;16.43;84.65;100930.53;5014515;28;20033;-72
2021/10/20 00:48:11;;;;;;;9.18;6.90;;;;;;;16.42;83.92;100926.13;5013107;28;20470;-73
2021/10/20 00:50:37;;;;;;;13.45;7.53;;;;;;;16.44;83.55;100924.34;5013244;28;20036;-73
2021/10/20 00:53:03;;;;;;;11.48;7.72;;;;;;;16.47;83.80;100928.75;5021045;28;20064;-73
2021/10/20 00:55:29;;;;;;;11.48;7.22;;;;;;;16.48;83.33;100927.84;5034549;28;20501;-73
2021/10/20 00:57:54;;;;;;;15.68;8.73;;;;;;;16.50;83.38;100918.97;5034419;28;20063;-73
2021/10/20 01:00:20;;;;;;;14.00;8.35;;;;;;;16.52;82.71;100909.25;5034121;28;20115;-72
2021/10/20 01:02:46;;;;;;;10.48;7.60;;;;;;;16.52;82.56;100911.91;5032675;28;20041;-72
2021/10/20 01:05:13;;;;;;;11.55;7.75;;;;;;;16.57;82.46;100913.63;5034004;28;20444;-72
2021/10/20 01:07:39;;;;;;;12.50;7.72;;;;;;;16.59;82.21;100896.78;5034355;28;20473;-72
2021/10/20 01:10:06;;;;;;;16.73;7.90;;;;;;;16.57;82.24;100893.25;5033924;28;20091;-72
2021/10/20 01:12:34;;;;;;;13.02;8.23;;;;;;;16.53;82.35;100875.56;5033980;28;20026;-72
2021/10/20 01:14:59;;;;;;;13.35;7.95;;;;;;;16.51;82.50;100880.91;5032382;28;20097;-72
2021/10/20 01:17:25;;;;;;;16.73;8.13;;;;;;;16.58;81.43;100899.47;5033667;28;20042;-72
2021/10/20 01:19:51;;;;;;;11.77;8.05;;;;;;;16.57;81.59;100889.72;5032853;28;20064;-72
2021/10/20 01:22:16;;;;;;;14.35;8.70;;;;;;;16.53;81.66;100886.19;5032673;28;20091;-73
2021/10/20 01:24:42;;;;;;;11.00;8.20;;;;;;;16.53;81.34;100891.50;5033408;28;20041;-72
2021/10/20 01:27:08;;;;;;;13.10;8.20;;;;;;;16.52;81.86;100885.31;5033879;28;20026;-73
2021/10/20 01:29:34;;;;;;;13.90;8.60;;;;;;;16.50;81.56;100876.47;5033159;28;20025;-73
2021/10/20 01:32:05;;;;;;;11.13;8.23;;;;;;;16.49;81.56;100881.81;5033518;28;20384;-73
2021/10/20 01:34:30;;;;;;;13.85;8.57;;;;;;;16.47;81.03;100872.97;5032663;28;20124;-72
2021/10/20 01:36:59;;;;;;;16.27;8.90;;;;;;;16.47;81.08;100859.69;5033610;28;20117;-72
2021/10/20 01:39:24;;;;;;;16.50;9.10;;;;;;;16.47;80.99;100876.50;5033609;28;20420;-71
2021/10/20 01:41:50;;;;;;;17.10;9.40;;;;;;;16.47;80.85;100871.19;5033825;28;20024;-72
2021/10/20 01:44:15;;;;;;;16.33;9.27;;;;;;;16.44;80.84;100876.53;5033320;28;20068;-72
2021/10/20 01:46:41;;;;;;;15.88;9.18;;;;;;;16.40;81.34;100869.47;5033591;28;20025;-73
2021/10/20 01:49:06;;;;;;;10.77;8.27;;;;;;;16.45;81.12;100872.97;5033075;28;20354;-73
2021/10/20 01:51:32;;;;;;;16.80;9.02;;;;;;;16.48;80.58;100862.34;5033456;28;20088;-72
2021/10/20 01:53:57;;;;;;;14.40;9.20;;;;;;;16.49;80.51;100868.53;5019428;28;20034;-73
2021/10/20 01:56:23;;;;;;;19.10;9.90;;;;;;;16.50;80.25;100854.34;5013641;28;20029;-73
2021/10/20 01:58:49;;;;;;;16.30;9.30;;;;;;;16.51;80.13;100841.06;5012417;28;20504;-72
2021/10/20 02:01:14;;;;;;;15.80;8.88;;;;;;;16.47;80.15;100838.44;5012094;28;20025;-72
2021/10/20 02:03:40;;;;;;;13.88;9.05;;;;;;;16.48;79.37;100826.91;5013475;28;20026;-73
2021/10/20 02:06:14;;;;;;;12.65;8.40;;;;;;;16.44;79.75;100826.06;5013692;28;20650;-72
2021/10/20 02:08:41;;;;;;;13.85;8.15;;;;;;;16.43;80.02;100816.34;5013542;28;20058;-72
2021/10/20 02:11:07;;;;;;;14.30;8.75;;;;;;;16.40;80.10;100816.38;5013549;28;20105;-73
2021/10/20 02:13:32;;;;;;;14.05;9.88;;;;;;;16.35;80.08;100812.88;5013457;28;20044;-73
2021/10/20 02:15:58;;;;;;;14.43;8.55;;;;;;;16.41;79.44;100809.28;5013205;28;20026;-72
2021/10/20 02:18:23;;;;;;;14.45;8.70;;;;;;;16.36;80.12;100811.97;5012110;28;20122;-73
2021/10/20 02:20:50;;;;;;;13.05;8.80;;;;;;;16.38;79.48;100807.50;5013261;28;20129;-73
2021/10/20 02:23:16;;;;;;;14.65;9.25;;;;;;;16.39;79.03;100809.28;5013560;28;20128;-73
2021/10/20 02:25:41;;;;;;;15.68;9.52;;;;;;;16.43;79.11;100803.06;5011881;28;20080;-73
2021/10/20 02:28:06;;;;;;;13.93;9.20;;;;;;;16.44;78.74;100804.81;5013380;28;20026;-73
2021/10/20 02:30:32;;;;;;;14.30;9.32;;;;;;;16.42;78.79;100792.44;5012560;28;20030;-73
2021/10/20 02:32:57;;;;;;;13.90;9.15;;;;;;;16.38;78.74;100780.97;5012193;28;20060;-72
2021/10/20 02:35:23;;;;;;;15.70;9.45;;;;;;;16.39;78.81;100780.06;5013264;28;20061;-72
2021/10/20 02:37:48;;;;;;;15.10;9.38;;;;;;;16.37;78.74;100776.53;5013033;28;20033;-72
2021/10/20 02:40:14;;;;;;;12.02;8.75;;;;;;;16.41;78.72;100777.41;5013699;28;20057;-72
2021/10/20 02:42:40;;;;;;;14.70;9.52;;;;;;;16.34;78.89;100769.47;5017265;28;20022;-72
2021/10/20 02:45:08;;;;;;;13.10;9.50;;;;;;;16.32;78.59;100759.78;5017131;28;20565;-72
2021/10/20 02:47:34;;;;;;;12.68;9.05;;;;;;;16.35;78.42;100762.41;5017005;28;20022;-72
2021/10/20 02:49:59;;;;;;;16.33;9.77;;;;;;;16.33;78.45;100756.22;5015686;28;20061;-73
2021/10/20 02:52:24;;;;;;;23.65;10.00;;;;;;;16.37;77.87;100751.78;5018094;28;20504;-72
2021/10/20 02:54:49;;;;;;;14.82;9.48;;;;;;;16.38;78.53;100751.75;5036060;28;20091;-72
2021/10/20 02:57:15;;;;;;;15.52;9.00;;;;;;;16.35;78.12;100747.34;5036313;28;20501;-73
2021/10/20 02:59:40;;;;;;;12.18;9.05;;;;;;;16.39;78.47;100752.66;5036337;28;20049;-73
2021/10/20 03:02:06;;;;;;;12.63;9.38;;;;;;;16.37;77.98;100742.00;5035271;28;20116;-73
2021/10/20 03:04:31;;;;;;;16.40;10.30;;;;;;;16.39;77.92;100732.28;5036225;28;20026;-71
2021/10/20 03:06:56;;;;;;;15.00;9.60;;;;;;;16.35;77.30;100726.09;5036503;28;20048;-72
2021/10/20 03:09:22;;;;;;;15.43;10.18;;;;;;;16.38;77.40;100730.50;5036337;28;20033;-73
2021/10/20 03:11:47;;;;;;;15.45;9.88;;;;;;;16.40;77.31;100739.34;5035969;28;20033;-72
2021/10/20 03:14:12;;;;;;;17.35;10.35;;;;;;;16.42;77.29;100728.72;5035902;28;20080;-72
2021/10/20 03:16:38;;;;;;;15.35;10.50;;;;;;;16.40;77.21;100730.50;5036114;28;20045;-73
2021/10/20 03:19:03;;;;;;;18.92;10.35;;;;;;;16.42;77.27;100718.09;5036351;28;20527;-73
2021/10/20 03:21:28;;;;;;;13.45;9.93;;;;;;;16.44;76.46;100716.28;5036078;28;20539;-72
2021/10/20 03:23:54;;;;;;;23.27;11.00;;;;;;;16.46;76.94;100712.72;5036207;28;20029;-72
2021/10/20 03:26:19;;;;;;;14.50;10.73;;;;;;;16.46;76.52;100715.38;5034601;28;20045;-72
2021/10/20 03:28:44;;;;;;;16.00;10.80;;;;;;;16.48;75.96;100713.59;5035401;28;20025;-73
2021/10/20 03:31:10;;;;;;;15.95;10.90;;;;;;;16.51;75.73;100708.25;5035692;28;20029;-72
2021/10/20 03:33:35;;;;;;;15.63;11.55;;;;;;;16.55;75.60;100718.84;5035831;28;20095;-73
2021/10/20 03:36:00;;;;;;;21.35;10.77;;;;;;;16.54;75.40;100717.09;5035617;28;20029;-73
2021/10/20 03:38:26;;;;;;;15.88;10.57;;;;;;;16.59;75.64;100710.84;5035565;28;20037;-72
2021/10/20 03:40:54;;;;;;;15.73;11.15;;;;;;;16.58;75.53;100716.16;5035443;28;20416;-73
2021/10/20 03:43:19;;;;;;;15.90;10.32;;;;;;;16.60;76.00;100701.06;5035452;28;20491;-72
2021/10/20 03:45:44;;;;;;;15.63;11.05;;;;;;;16.57;76.07;100703.78;5033916;28;20116;-71
2021/10/20 03:48:10;;;;;;;15.13;10.55;;;;;;;16.59;76.55;100694.00;5035548;28;20469;-73
2021/10/20 03:50:35;;;;;;;15.13;9.93;;;;;;;16.55;76.53;100709.09;5034067;28;20094;-72
2021/10/20 03:53:01;;;;;;;13.65;10.45;;;;;;;16.52;76.72;100687.88;5027279;28;20507;-74
2021/10/20 03:55:26;;;;;;;14.95;10.50;;;;;;;16.51;77.12;100708.25;5015454;28;20363;-73
2021/10/20 03:57:52;;;;;;;13.63;10.45;;;;;;;16.54;76.88;100695.84;5015427;28;20022;-73
2021/10/20 04:00:18;;;;;;;16.25;10.05;;;;;;;16.46;77.56;100694.13;5013855;28;20075;-72
2021/10/20 04:02:44;;;;;;;16.15;10.38;;;;;;;16.46;77.30;100683.50;5015176;28;20052;-73
2021/10/20 04:05:12;;;;;;;14.60;10.02;;;;;;;16.51;77.60;100687.00;5013882;28;20025;-73
2021/10/20 04:07:42;;;;;;;17.40;10.60;;;;;;;16.52;77.67;100677.25;5015213;28;20533;-73
2021/10/20 04:10:11;;;;;;;14.50;10.07;;;;;;;16.51;77.64;100668.41;5015014;28;20116;-73
2021/10/20 04:12:36;;;;;;;11.40;8.70;;;;;;;16.56;77.13;100672.78;5014804;28;20033;-72
2021/10/20 04:15:02;;;;;;;16.65;10.57;;;;;;;16.58;77.41;100673.66;5013594;28;20160;-73
2021/10/20 04:17:28;;;;;;;13.63;9.70;;;;;;;16.65;77.44;100667.38;5015064;28;20383;-73
2021/10/20 04:19:53;;;;;;;12.95;9.75;;;;;;;16.62;77.58;100659.44;5015066;28;20125;-72
2021/10/20 04:22:18;;;;;;;13.57;9.25;;;;;;;16.59;77.89;100657.69;5013555;28;20371;-72
2021/10/20 04:24:44;;;;;;;14.52;10.32;;;;;;;16.60;78.13;100656.78;5014818;28;20406;-72
2021/10/20 04:27:09;;;;;;;12.88;9.43;;;;;;;16.61;78.15;100655.88;5015086;28;20469;-72
2021/10/20 04:29:34;;;;;;;13.02;8.52;;;;;;;16.67;77.55;100654.94;5014588;28;20137;-72
2021/10/20 04:32:00;;;;;;;17.05;10.48;;;;;;;16.72;77.40;100650.44;5014451;28;20044;-73
2021/10/20 04:34:25;;;;;;;21.20;10.32;;;;;;;16.73;79.29;100649.56;5014333;28;20030;-73
2021/10/20 04:36:50;;;;;;;16.92;10.90;;;;;;;16.47;81.79;100672.00;5014449;28;20500;-72
2021/10/20 04:39:16;;;;;;;15.18;11.25;;;;;;;16.29;84.30;100674.81;5014843;28;20026;-72
2021/10/20 04:41:41;;;;;;;17.02;11.48;;;;;;;15.92;87.30;100680.47;5014345;28;20033;-73
2021/10/20 04:44:06;;;;;;;15.35;12.52;;;;;;;15.63;90.84;100684.19;5014609;28;20026;-73
2021/10/20 04:46:32;;;;;;;18.80;12.32;;;;;;;15.40;92.09;100692.31;5013186;28;20057;-73
2021/10/20 04:48:57;;;;;;;18.27;12.85;;;;;;;15.29;94.03;100690.59;5013035;28;20041;-73
2021/10/20 04:51:25;;;;;;;20.98;14.15;;;;;;;15.10;95.51;100700.41;5014417;28;20041;-74
2021/10/20 04:53:50;;;;;;;20.00;14.32;;;;;;;15.02;96.73;100707.50;5026059;28;20496;-74
2021/10/20 04:56:15;;;;;;;18.25;13.98;;;;;;;14.88;98.48;100704.91;5033898;28;20061;-74
2021/10/20 04:58:41;;;;;;;25.73;14.90;;;;;;;14.81;99.06;100692.56;5034233;28;20052;-73
2021/10/20 05:01:06;;;;;;;27.30;16.50;;;;;;;14.75;99.88;100688.16;5034416;28;20036;-74
2021/10/20 05:03:31;;;;;;;24.13;15.73;;;;;;;14.72;100.00;100688.19;5032598;28;20112;-74
2021/10/20 05:05:57;;;;;;;24.10;15.27;;;;;;;14.73;99.80;100682.00;5034188;28;20061;-73
2021/10/20 05:08:22;;;;;;;26.73;16.02;;;;;;;14.79;99.67;100679.31;5033012;28;20048;-73
2021/10/20 05:10:47;;;;;;;24.35;16.00;;;;;;;14.77;99.67;100673.16;5032421;28;20389;-73
2021/10/20 05:13:13;;;;;;;23.40;15.32;;;;;;;14.78;100.00;100674.03;5032332;28;20032;-73
2021/10/20 05:15:38;;;;;;;24.02;14.98;;;;;;;14.81;99.08;100655.47;5033572;28;20021;-72
2021/10/20 05:18:04;;;;;;;24.13;14.40;;;;;;;14.87;98.48;100643.94;5033830;28;20029;-72
2021/10/20 05:20:29;;;;;;;24.63;15.13;;;;;;;14.87;98.55;100638.66;5033660;28;20029;-72
2021/10/20 05:22:54;;;;;;;22.58;14.80;;;;;;;14.89;98.64;100626.31;5032523;28;20033;-73
2021/10/20 05:25:20;;;;;;;24.83;15.90;;;;;;;14.86;99.44;100628.97;5033289;28;20046;-73
2021/10/20 05:27:45;;;;;;;23.30;14.70;;;;;;;14.90;98.39;100623.63;5033520;28;20032;-73
2021/10/20 05:30:11;;;;;;;22.55;13.52;;;;;;;14.96;97.83;100623.63;5033260;28;20469;-72
2021/10/20 05:32:37;;;;;;;20.63;13.75;;;;;;;15.00;96.97;100614.78;5033602;28;20045;-73
2021/10/20 05:35:03;;;;;;;20.65;13.57;;;;;;;15.02;97.63;100617.41;5032193;28;20025;-73
2021/10/20 05:37:28;;;;;;;20.63;13.73;;;;;;;15.08;96.69;100616.47;5033567;28;20060;-73
2021/10/20 05:39:54;;;;;;;20.58;13.73;;;;;;;15.12;96.74;100611.16;5033529;28;20032;-73
2021/10/20 05:42:20;;;;;;;16.73;12.02;;;;;;;15.22;95.52;100614.66;5033349;28;20461;-73
2021/10/20 05:44:45;;;;;;;20.48;12.23;;;;;;;15.28;95.53;100593.38;5033313;28;20101;-73
2021/10/20 05:47:11;;;;;;;21.38;12.40;;;;;;;15.30;95.41;100573.06;5033217;28;20033;-73
2021/10/20 05:49:37;;;;;;;19.25;12.10;;;;;;;15.32;95.39;100563.31;5032122;28;20037;-74
2021/10/20 05:52:03;;;;;;;21.83;12.02;;;;;;;15.32;95.84;100554.47;5033352;28;20033;-73
2021/10/20 05:54:29;;;;;;;20.48;12.98;;;;;;;15.36;96.00;100563.31;5015210;28;20057;-74
2021/10/20 05:56:54;;;;;;;19.67;11.85;;;;;;;15.42;95.60;100557.94;5012461;28;20065;-73
2021/10/20 05:59:23;;;;;;;20.95;12.52;;;;;;;15.46;95.22;100564.97;5013685;28;20025;-73
2021/10/20 06:01:50;;;;;;;21.05;12.27;;;;;;;15.50;94.96;100538.44;5013622;28;20030;-72
2021/10/20 06:04:16;;;;;;;19.33;12.23;;;;;;;15.50;95.23;100541.09;5013313;28;20029;-72
2021/10/20 06:06:42;;;;;;;15.82;11.45;;;;;;;15.56;95.17;100539.25;5013244;28;20038;-73
2021/10/20 06:09:07;;;;;;;16.10;11.48;;;;;;;15.59;95.32;100544.53;5012058;28;20125;-74
2021/10/20 06:11:33;;;;;;;18.73;11.55;;;;;;;15.65;95.03;100549.78;5013306;28;20022;-73
2021/10/20 06:13:58;;;;;;;16.60;11.95;;;;;;;15.70;94.83;100541.78;5013413;28;20381;-73
2021/10/20 06:16:24;;;;;;;15.57;11.27;;;;;;;15.72;94.90;100519.66;5015730;28;20111;-73
2021/10/20 06:18:49;;;;;;;17.50;11.23;;;;;;;15.76;94.17;100525.81;5017266;28;20037;-73
2021/10/20 06:21:14;;;;;;;16.73;10.40;;;;;;;15.82;92.58;100520.47;5017085;28;20368;-73
2021/10/20 06:23:40;;;;;;;13.73;10.30;;;;;;;15.85;92.19;100512.47;5016901;28;20049;-73
2021/10/20 06:26:05;;;;;;;13.13;9.57;;;;;;;15.87;91.18;100509.81;5016884;28;20073;-73
2021/10/20 06:28:31;;;;;;;16.42;9.82;;;;;;;15.88;91.03;100538.09;5017031;28;20033;-73
2021/10/20 06:30:56;;;;;;;15.00;8.38;;;;;;;15.89;91.70;100532.78;5016979;28;20049;-72
2021/10/20 06:33:22;;;;;;;11.80;8.82;;;;;;;15.80;92.53;100523.16;5016980;28;20092;-73
2021/10/20 06:35:47;;;;;;;13.60;9.52;;;;;;;15.68;93.30;100523.22;5016799;28;20041;-73
2021/10/20 06:38:12;;;;;;;13.27;9.20;;;;;;;15.54;94.68;100543.69;5016750;28;20429;-73
2021/10/20 06:40:38;;;;;;;17.65;9.93;;;;;;;15.41;96.00;100557.06;5016655;28;20026;-74
2021/10/20 06:43:03;;;;;;;11.65;8.65;;;;;;;15.24;97.64;100545.72;5015527;28;20036;-74
2021/10/20 06:45:29;;;;;;;18.88;10.77;;;;;;;15.07;99.53;100544.06;5016742;28;20489;-75
2021/10/20 06:47:54;;;;;;;15.98;9.70;;;;;;;14.94;100.00;100522.06;5016819;28;20026;-75
2021/10/20 06:50:20;;;;;;;17.08;9.73;;;;;;;14.84;100.00;100523.88;5016669;28;20025;-75
2021/10/20 06:52:45;;;;;;;15.95;11.20;;;;;;;14.76;100.00;100519.50;5020773;28;20112;-74
2021/10/20 06:55:11;;;;;;;15.77;10.52;;;;;;;14.65;100.00;100490.47;5036281;28;20446;-72
2021/10/20 06:57:39;;;;;;;15.40;11.15;;;;;;;14.65;100.00;100486.03;5036142;28;20063;-74
2021/10/20 07:00:05;;;;;;;21.88;11.25;;;;;;;14.57;100.00;100481.63;5036243;28;20022;-74
2021/10/20 07:02:30;;;;;;;15.60;11.65;;;;;;;14.58;100.00;100468.41;5036117;28;20045;-74
2021/10/20 07:04:56;;;;;;;14.73;10.63;;;;;;;14.57;100.00;100452.50;5036043;28;20042;-74
2021/10/20 07:07:21;;;;;;;20.27;12.00;;;;;;;14.54;100.00;100447.25;5035910;28;20100;-74
2021/10/20 07:09:47;;;;;;;16.83;11.63;;;;;;;14.50;100.00;100426.09;5036177;28;20029;-74
2021/10/20 07:12:12;;;;;;;15.73;11.02;;;;;;;14.50;100.00;100406.66;5036308;28;20076;-74
2021/10/20 07:14:37;;;;;;;21.38;12.02;;;;;;;14.46;100.00;100395.22;5034464;28;20034;-74
2021/10/20 07:17:05;;;;;;;21.55;11.52;;;;;;;14.45;100.00;100395.25;5035940;28;20389;-74
2021/10/20 07:19:30;;;;;;;17.52;12.00;;;;;;;14.43;100.00;100381.13;5035970;28;20507;-73
2021/10/20 07:21:58;;;;;;;16.05;11.52;;;;;;;14.45;100.00;100372.28;5035765;28;20033;-74
2021/10/20 07:24:24;;;;;;;20.67;11.85;;;;;;;14.46;100.00;100373.16;5035380;28;20111;-73
2021/10/20 07:26:49;;;;;;;18.42;11.52;;;;;;;14.45;100.00;100377.56;5034695;28;20027;-73
2021/10/20 07:29:16;;;;;;;19.50;12.40;;;;;;;14.47;100.00;100381.09;5035313;28;20073;-74
2021/10/20 07:31:42;;;;;;;21.88;11.82;;;;;;;14.47;100.00;100391.69;5035706;28;20032;-74
2021/10/20 07:34:07;;;;;;;16.30;11.68;;;;;;;14.46;100.00;100395.22;5035802;28;20030;-74
2021/10/20 07:36:32;;;;;;;15.27;11.02;;;;;;;14.48;100.00;100382.84;5034357;28;20037;-74
2021/10/20 07:38:58;;;;;;;20.23;11.38;;;;;;;14.48;100.00;100393.44;5035319;28;20025;-74
2021/10/20 07:41:23;;;;;;;16.63;10.45;;;;;;;14.51;100.00;100387.25;5035303;28;20060;-74
2021/10/20 07:43:48;;;;;;;16.85;11.57;;;;;;;14.54;100.00;100371.34;5034098;28;20029;-74
2021/10/20 07:46:14;;;;;;;17.52;11.45;;;;;;;14.61;100.00;100385.41;5035327;28;20403;-74
2021/10/20 07:48:39;;;;;;;20.42;10.48;;;;;;;14.63;100.00;100383.66;5035144;28;20037;-74
2021/10/20 07:51:05;;;;;;;16.65;9.77;;;;;;;14.65;100.00;100380.13;5035139;28;20512;-72
2021/10/20 07:53:30;;;;;;;19.35;9.70;;;;;;;14.73;100.00;100377.41;5024926;28;20394;-74
2021/10/20 07:55:55;;;;;;;14.40;10.30;;;;;;;14.74;100.00;100379.16;5015519;28;20038;-73
2021/10/20 07:58:21;;;;;;;14.05;8.85;;;;;;;14.80;100.00;100384.41;5015554;28;20057;-74
2021/10/20 08:00:46;;;;;;;12.30;8.90;;;;;;;14.84;100.00;100406.47;5015449;28;20038;-75
2021/10/20 08:03:11;;;;;;;13.65;9.02;;;;;;;14.96;100.00;100413.41;5015192;28;20037;-72
2021/10/20 08:05:37;;;;;;;12.40;9.98;;;;;;;15.06;100.00;100409.81;5015115;28;20076;-73
2021/10/20 08:08:02;;;;;;;12.90;8.73;;;;;;;15.16;100.00;100408.81;5015248;28;20037;-73
2021/10/20 08:10:28;;;;;;;11.80;8.70;;;;;;;15.20;100.00;100393.75;5015071;28;20030;-74
2021/10/20 08:12:56;;;;;;;9.63;8.25;;;;;;;15.22;100.00;100391.09;5015169;28;20593;-74
2021/10/20 08:15:22;;;;;;;15.32;8.55;;;;;;;15.28;100.00;100406.94;5014003;28;20028;-73
2021/10/20 08:17:48;;;;;;;9.98;7.97;;;;;;;15.31;100.00;100397.22;5015180;28;20046;-74
2021/10/20 08:20:17;;;;;;;11.18;7.53;;;;;;;15.32;100.00;100380.38;5015241;28;20038;-74
2021/10/20 08:22:43;;;;;;;14.35;8.00;;;;;;;15.39;100.00;100399.75;5015059;28;20030;-73
2021/10/20 08:25:09;;;;;;;13.77;8.82;;;;;;;15.37;100.00;100395.34;5014564;28;20115;-74
2021/10/20 08:27:36;;;;;;;15.13;8.48;;;;;;;15.41;100.00;100387.38;5015294;28;20034;-73
2021/10/20 08:30:03;;;;;;;13.60;9.05;;;;;;;15.48;100.00;100399.66;5014784;28;20088;-73
2021/10/20 08:32:29;;;;;;;15.02;8.55;;;;;;;15.58;100.00;100396.91;5013634;28;20045;-73
2021/10/20 08:34:54;;;;;;;13.68;8.90;;;;;;;15.60;99.99;100377.44;5014611;28;20418;-73
2021/10/20 08:37:20;;;;;;;10.00;8.43;;;;;;;15.71;99.85;100372.00;5014826;28;20393;-74
2021/10/20 08:39:45;;;;;;;11.50;8.65;;;;;;;15.81;99.52;100378.97;5014695;28;20033;-74
2021/10/20 08:42:11;;;;;;;13.57;8.48;;;;;;;15.89;98.39;100378.00;5013092;28;20026;-74
2021/10/20 08:44:37;;;;;;;12.75;8.77;;;;;;;15.97;97.62;100353.13;5014849;28;20418;-73
2021/10/20 08:47:04;;;;;;;9.32;7.80;;;;;;;16.06;97.44;100345.94;5014553;28;20044;-74
2021/10/20 08:49:30;;;;;;;13.15;8.50;;;;;;;16.21;96.70;100342.16;5013498;28;20038;-74
2021/10/20 08:51:56;;;;;;;12.90;8.75;;;;;;;16.38;96.00;100353.41;5014509;28;20177;-74
2021/10/20 08:54:21;;;;;;;13.02;8.25;;;;;;;16.47;95.73;100350.63;5030177;28;20093;-73
2021/10/20 08:56:47;;;;;;;13.45;9.02;;;;;;;16.43;96.00;100356.03;5034327;28;20033;-73
2021/10/20 08:59:13;;;;;;;11.77;8.50;;;;;;;16.52;95.75;100362.06;5033957;28;20030;-73
2021/10/20 09:01:39;;;;;;;11.98;8.75;;;;;;;16.45;94.74;100356.84;5034026;28;20030;-74
2021/10/20 09:04:09;;;;;;;11.88;8.50;;;;;;;16.47;94.72;100363.03;5034158;28;20025;-74
2021/10/20 09:06:34;;;;;;;10.77;7.85;;;;;;;16.49;94.58;100358.56;5033990;28;20017;-73
2021/10/20 09:09:03;;;;;;;9.82;8.07;;;;;;;16.48;95.09;100331.16;5034055;28;20117;-73
2021/10/20 09:11:36;;;;;;;10.95;8.82;;;;;;;16.49;95.08;100342.63;5033983;28;20075;-73
2021/10/20 09:14:10;;;;;;;13.57;7.55;;;;;;;16.49;94.09;100327.59;5033866;28;20037;-73
2021/10/20 09:16:38;;;;;;;10.35;8.48;;;;;;;16.54;93.78;100326.63;5033577;28;20037;-74
2021/10/20 09:19:20;;;;;;;11.02;8.80;;;;;;;16.46;94.93;100324.97;5033641;28;20026;-74
2021/10/20 09:21:53;;;;;;;9.70;8.00;;;;;;;16.48;94.46;100325.84;5032574;28;20048;-74
2021/10/20 09:24:19;;;;;;;14.02;8.20;;;;;;;16.57;94.14;100329.22;5033458;28;20469;-73
2021/10/20 09:26:44;;;;;;;14.77;7.60;;;;;;;16.61;93.51;100341.56;5033602;28;20049;-73
2021/10/20 09:29:27;;;;;;;11.70;8.10;;;;;;;16.62;93.56;100319.41;5033287;28;20060;-72
2021/10/20 09:31:54;;;;;;;10.02;7.60;;;;;;;16.65;93.30;100332.63;5033348;28;20029;-72
2021/10/20 09:34:19;;;;;;;10.55;6.88;;;;;;;16.71;92.87;100318.38;5033355;28;20100;-73
2021/10/20 09:36:45;;;;;;;10.85;6.63;;;;;;;16.74;92.92;100313.00;5033265;28;20601;-73
2021/10/20 09:39:14;;;;;;;8.25;6.60;;;;;;;16.67;92.90;100325.50;5032226;28;20435;-72
2021/10/20 09:41:39;;;;;;;9.40;6.47;;;;;;;16.70;93.10;100320.16;5033234;28;20032;-72
2021/10/20 09:44:12;;;;;;;10.45;7.03;;;;;;;16.70;93.24;100328.13;5033523;28;20382;-72
2021/10/20 09:46:43;;;;;;;12.13;7.27;;;;;;;16.65;93.17;100325.53;5031955;28;20389;-72
2021/10/20 09:49:16;;;;;;;11.75;7.28;;;;;;;16.67;93.16;100320.19;5031802;28;20782;-73
2021/10/20 09:51:42;;;;;;;11.27;6.87;;;;;;;16.72;92.91;100322.78;5032751;28;20037;-73
2021/10/20 09:54:41;;;;;;;10.65;6.78;;;;;;;16.68;93.50;100336.13;5017877;28;20283;-71
2021/10/20 09:57:06;;;;;;;11.10;6.82;;;;;;;16.75;93.48;100322.72;5012204;28;20513;-72
2021/10/20 09:59:32;;;;;;;9.55;6.25;;;;;;;16.82;92.59;100330.56;5013550;28;20030;-73
2021/10/20 10:01:59;;;;;;;7.85;5.80;;;;;;;16.88;93.05;100336.69;5013409;28;20545;-73
2021/10/20 10:04:25;;;;;;;9.90;6.07;;;;;;;16.87;92.93;100309.22;5013282;28;20113;-74
2021/10/20 10:06:51;;;;;;;10.30;7.00;;;;;;;16.82;92.97;100319.03;5013691;28;20108;-73
2021/10/20 10:09:17;;;;;;;12.73;7.85;;;;;;;16.90;92.53;100322.50;5013858;28;20535;-73
2021/10/20 10:11:52;;;;;;;11.75;6.78;;;;;;;17.03;91.58;100309.84;5013474;28;20103;-74
2021/10/20 10:14:22;;;;;;;10.27;6.43;;;;;;;17.05;91.27;100313.38;5013307;28;20045;-73
2021/10/20 10:16:52;;;;;;;11.88;6.70;;;;;;;17.06;91.08;100323.06;5013410;28;20497;-73
2021/10/20 10:19:21;;;;;;;11.70;6.50;;;;;;;17.08;90.91;100325.69;5013499;28;20382;-73
2021/10/20 10:21:47;;;;;;;13.85;6.47;;;;;;;17.06;91.28;100322.22;5013494;28;20037;-74
2021/10/20 10:24:15;;;;;;;12.13;6.88;;;;;;;17.12;91.49;100328.28;5013391;28;20544;-72
2021/10/20 10:27:09;;;;;;;14.02;6.85;;;;;;;17.13;90.91;100324.75;5012026;28;20526;-73
2021/10/20 10:29:45;;;;;;;;;;;;;;;17.33;91.03;100324.31;5013539;28;20101;-73
2021/10/20 10:32:10;;;;;;;10.27;6.20;;;;;;;17.42;89.82;100306.47;5013579;28;19915;-72
2021/10/20 10:34:38;;;;;;;11.18;6.10;;;;;;;17.38;89.79;100313.63;5011733;28;20022;-72
2021/10/20 10:37:04;;;;;;;9.65;6.00;;;;;;;17.38;89.48;100313.63;5013106;28;20030;-73
2021/10/20 10:39:32;;;;;;;14.45;6.57;;;;;;;17.42;89.80;100322.41;5013728;28;20531;-73
2021/10/20 10:42:03;;;;;;;9.18;5.70;;;;;;;17.32;90.53;100329.69;5013758;28;20033;-73
2021/10/20 10:45:02;;;;;;;8.25;6.13;;;;;;;17.25;90.25;100328.91;5013598;28;20088;-73
2021/10/20 10:47:27;;;;;;;11.60;6.05;;;;;;;17.19;90.93;100308.66;5012000;28;20132;-73
2021/10/20 10:49:57;;;;;;;13.60;5.50;;;;;;;17.22;90.80;100322.81;5013346;28;20049;-74
2021/10/20 10:52:28;;;;;;;8.23;5.15;;;;;;;17.16;90.39;100324.66;5014042;28;20043;-73
2021/10/20 10:54:58;;;;;;;11.88;6.00;;;;;;;17.17;90.66;100329.09;5032817;28;20124;-74
2021/10/20 10:57:39;;;;;;;14.63;6.10;;;;;;;17.06;91.06;100307.13;5032953;28;20030;-73
2021/10/20 11:00:10;;;;;;;14.30;6.15;;;;;;;17.06;91.62;100317.75;5032618;28;20029;-73
2021/10/20 11:02:44;;;;;;;13.85;5.82;;;;;;;17.06;90.85;100312.44;5032570;28;20028;-72
2021/10/20 11:05:09;;;;;;;14.80;5.57;;;;;;;17.02;90.76;100311.66;5036606;28;20025;-72
2021/10/20 11:07:35;;;;;;;11.85;6.00;;;;;;;17.03;91.30;100308.06;5036220;28;20025;-72
2021/10/20 11:10:02;;;;;;;9.20;5.05;;;;;;;17.09;91.06;100311.50;5036266;28;20025;-72
2021/10/20 11:12:27;;;;;;;10.50;4.90;;;;;;;17.24;89.33;100300.59;5036262;28;20036;-72